createdAt,value
2023-02-18T00:01:46.442Z,81.67
2023-02-18T00:04:18.848Z,80.62
2023-02-18T00:06:46.001Z,80.82
2023-02-18T00:09:15.888Z,82.17
2023-02-18T00:11:45.003Z,81.91
2023-02-18T00:14:15.590Z,81.38
2023-02-18T00:16:43.635Z,81.96
2023-02-18T00:19:20.373Z,81.69
2023-02-18T00:21:50.134Z,80.91
2023-02-18T00:24:17.437Z,80.40
2023-02-18T00:26:49.965Z,80.39
2023-02-18T00:29:16.875Z,81.79
2023-02-18T00:31:44.266Z,82.00
2023-02-18T00:34:14.232Z,82.37
2023-02-18T00:36:41.346Z,82.26
2023-02-18T00:39:14.008Z,81.95
2023-02-18T00:41:41.517Z,81.09
2023-02-18T00:44:09.456Z,81.10
2023-02-18T00:46:36.555Z,81.62
2023-02-18T00:49:04.768Z,82.47
2023-02-18T00:51:34.478Z,82.01
2023-02-18T00:54:01.439Z,82.19
2023-02-18T00:56:33.923Z,81.55
2023-02-18T00:59:00.847Z,82.17
2023-02-18T01:01:32.899Z,82.32
2023-02-18T01:03:59.884Z,81.74
2023-02-18T01:06:27.197Z,81.59
2023-02-18T01:08:58.947Z,81.86
2023-02-18T01:11:26.087Z,82.56
2023-02-18T01:13:53.142Z,83.53
2023-02-18T01:16:20.440Z,82.64
2023-02-18T01:18:47.555Z,83.70
2023-02-18T01:21:19.624Z,83.08
2023-02-18T01:23:48.966Z,83.21
2023-02-18T01:26:15.817Z,82.98
2023-02-18T01:28:42.779Z,83.31
2023-02-18T01:31:13.515Z,83.77
2023-02-18T01:33:40.833Z,83.94
2023-02-18T01:36:09.323Z,83.50
2023-02-18T01:38:36.950Z,84.77
2023-02-18T01:41:06.840Z,85.68
2023-02-18T01:43:35.134Z,85.62
2023-02-18T01:46:21.841Z,85.70
2023-02-18T01:48:55.775Z,84.88
2023-02-18T01:51:22.600Z,86.15
2023-02-18T01:53:55.400Z,85.95
2023-02-18T01:57:00.372Z,86.45
2023-02-18T01:59:40.606Z,86.66
2023-02-18T02:02:14.540Z,87.10
2023-02-18T02:04:42.348Z,87.15
2023-02-18T02:07:09.776Z,87.17
2023-02-18T02:09:38.725Z,88.75
2023-02-18T02:12:44.449Z,88.77
2023-02-18T02:15:30.616Z,88.11
2023-02-18T02:18:25.590Z,88.02
2023-02-18T02:21:26.784Z,88.41
2023-02-18T02:24:46.799Z,88.44
2023-02-18T02:27:53.327Z,87.80
2023-02-18T02:30:45.103Z,86.18
2023-02-18T02:33:37.363Z,86.38
2023-02-18T02:36:19.013Z,86.63
2023-02-18T02:39:29.044Z,86.29
2023-02-18T02:42:46.477Z,85.96
2023-02-18T02:45:43.568Z,85.59
2023-02-18T02:48:20.433Z,84.56
2023-02-18T02:51:20.596Z,84.42
2023-02-18T02:53:47.891Z,84.44
2023-02-18T02:56:22.516Z,84.53
2023-02-18T02:59:07.706Z,83.61
2023-02-18T03:02:16.132Z,83.45
2023-02-18T03:05:43.567Z,83.40
2023-02-18T03:08:28.879Z,82.69
2023-02-18T03:11:08.067Z,82.46
2023-02-18T03:13:53.639Z,82.17
2023-02-18T03:17:37.518Z,81.82
2023-02-18T03:20:35.624Z,81.80
2023-02-18T03:23:11.550Z,81.81
2023-02-18T03:25:43.480Z,82.14
2023-02-18T03:28:19.500Z,81.49
2023-02-18T03:30:59.373Z,82.05
2023-02-18T03:33:36.602Z,80.67
2023-02-18T03:36:04.505Z,80.95
2023-02-18T03:38:44.601Z,80.39
2023-02-18T03:41:14.434Z,80.93
2023-02-18T03:43:52.021Z,81.07
2023-02-18T03:46:22.027Z,80.56
2023-02-18T03:48:48.981Z,80.52
2023-02-18T03:51:19.323Z,80.87
2023-02-18T03:53:46.842Z,79.91
2023-02-18T03:56:14.435Z,80.95
2023-02-18T03:58:41.537Z,80.50
2023-02-18T04:01:08.584Z,80.28
2023-02-18T04:03:37.837Z,79.58
2023-02-18T04:06:05.660Z,79.55
2023-02-18T04:08:32.835Z,79.39
2023-02-18T04:11:00.493Z,80.14
2023-02-18T04:13:27.935Z,79.43
2023-02-18T04:15:57.964Z,78.90
2023-02-18T04:18:27.462Z,78.68
2023-02-18T04:20:56.701Z,79.27
2023-02-18T04:23:26.401Z,79.62
2023-02-18T04:25:55.980Z,79.54
2023-02-18T04:28:25.403Z,78.92
2023-02-18T04:30:52.494Z,77.89
2023-02-18T04:33:21.774Z,78.55
2023-02-18T04:35:51.319Z,79.15
2023-02-18T04:38:18.336Z,78.59
2023-02-18T04:40:45.503Z,78.74
2023-02-18T04:43:14.925Z,79.54
2023-02-18T04:45:41.896Z,79.26
2023-02-18T04:48:08.849Z,79.06
2023-02-18T04:50:35.719Z,79.34
2023-02-18T04:53:02.774Z,79.88
2023-02-18T04:55:30.021Z,79.94
2023-02-18T04:57:57.036Z,80.37
2023-02-18T05:00:28.607Z,79.60
2023-02-18T05:02:58.019Z,79.80
2023-02-18T05:05:27.578Z,80.74
2023-02-18T05:07:56.854Z,80.34
2023-02-18T05:10:23.805Z,80.57
2023-02-18T05:12:53.761Z,80.84
2023-02-18T05:15:20.887Z,79.97
2023-02-18T05:17:47.768Z,79.99
2023-02-18T05:20:14.798Z,80.29
2023-02-18T05:22:48.723Z,80.33
2023-02-18T05:25:15.775Z,79.74
2023-02-18T05:27:42.718Z,80.09
2023-02-18T05:30:12.856Z,79.49
2023-02-18T05:32:40.032Z,78.33
2023-02-18T05:35:10.414Z,79.46
2023-02-18T05:37:44.728Z,79.34
2023-02-18T05:40:16.872Z,79.44
2023-02-18T05:42:48.290Z,78.78
2023-02-18T05:45:15.293Z,78.58
2023-02-18T05:47:44.247Z,78.13
2023-02-18T05:50:11.414Z,77.56
2023-02-18T05:52:38.256Z,78.07
2023-02-18T05:55:07.668Z,78.68
2023-02-18T05:57:34.551Z,78.98
2023-02-18T06:00:01.391Z,78.90
2023-02-18T06:02:30.360Z,79.22
2023-02-18T06:04:59.691Z,78.76
2023-02-18T06:07:26.547Z,80.04
2023-02-18T06:09:53.895Z,80.13
2023-02-18T06:12:20.721Z,80.67
2023-02-18T06:14:47.723Z,79.77
2023-02-18T06:17:16.160Z,80.32
2023-02-18T06:19:43.125Z,80.60
2023-02-18T06:22:17.641Z,81.16
2023-02-18T06:24:44.681Z,81.02
2023-02-18T06:27:13.691Z,81.14
2023-02-18T06:29:40.534Z,80.26
2023-02-18T06:32:07.489Z,81.12
2023-02-18T06:34:34.461Z,81.51
2023-02-18T06:37:01.549Z,82.08
2023-02-18T06:39:29.021Z,82.81
2023-02-18T06:41:58.438Z,82.87
2023-02-18T06:44:25.271Z,82.29
2023-02-18T06:46:55.124Z,82.82
2023-02-18T06:49:25.044Z,83.04
2023-02-18T06:51:51.917Z,82.70
2023-02-18T06:54:18.834Z,82.04
2023-02-18T06:56:45.760Z,83.03
2023-02-18T06:59:14.993Z,83.25
2023-02-18T07:01:41.821Z,83.76
2023-02-18T07:04:11.777Z,82.80
2023-02-18T07:06:38.648Z,83.41
2023-02-18T07:09:06.311Z,84.99
2023-02-18T07:11:33.327Z,84.45
2023-02-18T07:14:00.176Z,85.89
2023-02-18T07:16:27.132Z,86.43
2023-02-18T07:18:58.973Z,85.77
2023-02-18T07:21:26.004Z,85.34
2023-02-18T07:23:52.892Z,86.06
2023-02-18T07:26:24.286Z,86.45
2023-02-18T07:28:51.089Z,86.48
2023-02-18T07:31:21.048Z,87.63
2023-02-18T07:33:50.139Z,88.11
2023-02-18T07:36:19.380Z,87.65
2023-02-18T07:38:49.286Z,87.99
2023-02-18T07:41:20.366Z,86.56
2023-02-18T07:43:52.208Z,86.37
2023-02-18T07:46:19.872Z,87.12
2023-02-18T07:48:48.782Z,87.63
2023-02-18T07:51:15.921Z,88.50
2023-02-18T07:53:44.080Z,89.10
2023-02-18T07:56:12.195Z,89.74
2023-02-18T07:58:42.631Z,90.14
2023-02-18T08:01:15.864Z,90.25
2023-02-18T08:03:43.402Z,93.04
2023-02-18T08:06:42.999Z,92.73
2023-02-18T08:09:10.444Z,91.24
2023-02-18T08:11:37.591Z,91.14
2023-02-18T08:14:07.566Z,92.29
2023-02-18T08:16:41.831Z,91.02
2023-02-18T08:19:18.724Z,91.74
2023-02-18T08:21:49.558Z,91.00
2023-02-18T08:24:17.410Z,92.25
2023-02-18T08:26:59.484Z,93.36
2023-02-18T08:29:31.964Z,94.42
2023-02-18T08:31:59.840Z,94.15
2023-02-18T08:34:29.620Z,95.84
2023-02-18T08:36:56.594Z,95.26
2023-02-18T08:39:26.421Z,94.93
2023-02-18T08:41:55.538Z,94.37
2023-02-18T08:44:22.508Z,95.11
2023-02-18T08:46:49.518Z,96.22
2023-02-18T08:49:21.285Z,95.75
2023-02-18T08:52:04.518Z,96.61
2023-02-18T08:54:34.544Z,98.26
2023-02-18T08:57:08.043Z,100.00
2023-02-18T08:59:37.446Z,99.96
2023-02-18T09:02:05.842Z,99.99
2023-02-18T09:04:33.321Z,100.00
2023-02-18T09:07:00.228Z,99.83
2023-02-18T09:09:29.419Z,99.82
2023-02-18T09:11:56.578Z,98.53
2023-02-18T09:14:26.677Z,98.30
2023-02-18T09:16:57.193Z,96.85
2023-02-18T09:19:25.209Z,96.25
2023-02-18T09:21:54.634Z,96.05
2023-02-18T09:24:24.694Z,94.93
2023-02-18T09:26:52.018Z,94.79
2023-02-18T09:32:22.613Z,95.89
2023-02-18T09:35:04.726Z,98.24
2023-02-18T09:37:31.631Z,98.62
2023-02-18T09:40:00.046Z,97.87
2023-02-18T09:42:35.160Z,99.72
2023-02-18T09:45:07.490Z,99.19
2023-02-18T09:47:41.360Z,98.47
2023-02-18T09:50:18.783Z,98.73
2023-02-18T09:52:50.676Z,97.63
2023-02-18T09:55:30.900Z,98.12
2023-02-18T09:58:08.460Z,98.52
2023-02-18T10:00:42.607Z,97.75
2023-02-18T10:03:18.106Z,98.52
2023-02-18T10:06:06.550Z,97.50
2023-02-18T10:08:45.218Z,97.04
2023-02-18T10:11:28.939Z,97.82
2023-02-18T10:13:57.478Z,96.85
2023-02-18T10:16:25.433Z,97.18
2023-02-18T10:19:00.210Z,97.85
2023-02-18T10:21:35.962Z,98.47
2023-02-18T10:24:26.337Z,99.75
2023-02-18T10:26:55.659Z,100.00
2023-02-18T10:29:26.360Z,100.00
2023-02-18T10:32:23.740Z,100.00
2023-02-18T10:35:00.419Z,100.00
2023-02-18T10:37:44.780Z,100.00
2023-02-18T10:40:30.521Z,100.00
2023-02-18T10:43:23.263Z,100.00
2023-02-18T10:46:18.918Z,100.00
2023-02-18T10:49:00.440Z,100.00
2023-02-18T10:51:35.760Z,100.00
2023-02-18T10:54:06.846Z,100.00
2023-02-18T10:56:38.706Z,100.00
2023-02-18T10:59:25.384Z,100.00
2023-02-18T11:02:12.212Z,100.00
2023-02-18T11:04:43.618Z,100.00
2023-02-18T11:07:23.932Z,100.00
2023-02-18T11:09:54.878Z,100.00
2023-02-18T11:12:58.737Z,100.00
2023-02-18T11:15:27.523Z,100.00
2023-02-18T11:18:00.031Z,100.00
2023-02-18T11:20:38.503Z,100.00
2023-02-18T11:23:18.573Z,100.00
2023-02-18T11:26:07.305Z,100.00
2023-02-18T11:28:45.393Z,100.00
2023-02-18T11:31:23.745Z,100.00
2023-02-18T11:33:57.567Z,100.00
2023-02-18T11:36:40.058Z,100.00
2023-02-18T11:39:24.447Z,100.00
2023-02-18T11:42:05.128Z,100.00
2023-02-18T11:44:37.594Z,100.00
2023-02-18T11:47:17.114Z,100.00
2023-02-18T11:50:02.765Z,100.00
2023-02-18T11:52:44.485Z,100.00
2023-02-18T11:55:27.676Z,100.00
2023-02-18T11:58:03.386Z,100.00
2023-02-18T12:00:47.217Z,100.00
2023-02-18T12:03:40.443Z,100.00
2023-02-18T12:06:20.934Z,100.00
2023-02-18T12:09:05.339Z,100.00
2023-02-18T12:11:44.703Z,100.00
2023-02-18T12:14:23.808Z,100.00
2023-02-18T12:17:31.619Z,100.00
2023-02-18T12:20:29.851Z,100.00
2023-02-18T12:23:34.439Z,100.00
2023-02-18T12:26:27.396Z,100.00
2023-02-18T12:29:05.759Z,100.00
2023-02-18T12:31:51.231Z,100.00
2023-02-18T12:34:43.176Z,100.00
2023-02-18T12:37:37.387Z,100.00
2023-02-18T12:40:36.385Z,100.00
2023-02-18T12:43:17.225Z,100.00
2023-02-18T12:46:24.153Z,100.00
2023-02-18T12:49:37.948Z,100.00
2023-02-18T12:52:37.056Z,100.00
2023-02-18T12:55:41.970Z,100.00
2023-02-18T12:58:39.712Z,100.00
2023-02-18T13:01:33.244Z,100.00
2023-02-18T13:04:39.797Z,100.00
2023-02-18T13:07:12.658Z,100.00
2023-02-18T13:10:17.143Z,100.00
2023-02-18T13:13:11.049Z,100.00
2023-02-18T13:16:22.689Z,100.00
2023-02-18T13:19:19.314Z,100.00
2023-02-18T13:21:49.912Z,100.00
2023-02-18T13:24:33.183Z,100.00
2023-02-18T13:27:34.202Z,100.00
2023-02-18T13:30:26.160Z,100.00
2023-02-18T13:33:57.175Z,100.00
2023-02-18T13:36:59.633Z,100.00
2023-02-18T13:39:27.489Z,100.00
2023-02-18T13:42:22.913Z,100.00
2023-02-18T13:44:55.888Z,100.00
2023-02-18T13:47:45.552Z,100.00
2023-02-18T13:50:30.330Z,100.00
2023-02-18T13:53:09.584Z,100.00
2023-02-18T13:56:28.406Z,100.00
2023-02-18T13:59:11.357Z,100.00
2023-02-18T14:01:49.644Z,100.00
2023-02-18T14:04:44.390Z,100.00
2023-02-18T14:07:44.498Z,100.00
2023-02-18T14:10:18.259Z,100.00
2023-02-18T14:12:57.926Z,100.00
2023-02-18T14:15:24.878Z,100.00
2023-02-18T14:18:12.949Z,100.00
2023-02-18T14:20:39.877Z,100.00
2023-02-18T14:23:18.497Z,100.00
2023-02-18T14:26:05.701Z,100.00
2023-02-18T14:28:40.707Z,100.00
2023-02-18T14:31:14.122Z,100.00
2023-02-18T14:33:49.867Z,100.00
2023-02-18T14:36:25.646Z,100.00
2023-02-18T14:39:35.850Z,100.00
2023-02-18T14:42:22.227Z,100.00
2023-02-18T14:45:11.043Z,100.00
2023-02-18T14:48:02.641Z,100.00
2023-02-18T14:50:35.981Z,100.00
2023-02-18T14:53:18.460Z,100.00
2023-02-18T14:55:50.152Z,100.00
2023-02-18T14:58:43.691Z,100.00
2023-02-18T15:01:24.455Z,100.00
2023-02-18T15:03:54.650Z,100.00
2023-02-18T15:06:38.404Z,100.00
2023-02-18T15:09:19.971Z,100.00
2023-02-18T15:12:05.884Z,100.00
2023-02-18T15:14:42.410Z,100.00
2023-02-18T15:17:31.979Z,100.00
2023-02-18T15:20:06.630Z,100.00
2023-02-18T15:22:36.265Z,100.00
2023-02-18T15:25:06.040Z,100.00
2023-02-18T15:27:39.128Z,100.00
2023-02-18T15:30:31.475Z,99.95
2023-02-18T15:33:02.145Z,99.25
2023-02-18T15:35:33.071Z,98.97
2023-02-18T15:38:04.655Z,99.26
2023-02-18T15:40:35.549Z,99.59
2023-02-18T15:43:05.239Z,97.81
2023-02-18T15:45:38.507Z,98.77
2023-02-18T15:48:06.379Z,98.38
2023-02-18T15:50:47.053Z,97.65
2023-02-18T15:53:21.169Z,97.06
2023-02-18T15:55:51.313Z,96.02
2023-02-18T15:58:28.861Z,95.48
2023-02-18T16:01:04.737Z,94.42
2023-02-18T16:03:49.100Z,96.24
2023-02-18T16:06:23.224Z,97.66
2023-02-18T16:09:19.470Z,97.76
2023-02-18T16:11:54.474Z,98.17
2023-02-18T16:14:28.041Z,97.90
2023-02-18T16:17:13.022Z,97.76
2023-02-18T16:20:15.089Z,97.61
2023-02-18T16:22:56.190Z,95.88
2023-02-18T16:25:35.736Z,96.08
2023-02-18T16:28:02.632Z,95.26
2023-02-18T16:30:36.390Z,96.49
2023-02-18T16:33:04.050Z,96.32
2023-02-18T16:35:44.012Z,95.47
2023-02-18T16:38:25.331Z,94.66
2023-02-18T16:40:56.846Z,95.32
2023-02-18T16:43:27.364Z,94.59
2023-02-18T16:45:58.025Z,94.41
2023-02-18T16:48:42.137Z,94.21
2023-02-18T16:51:21.433Z,94.72
2023-02-18T16:53:48.491Z,93.13
2023-02-18T16:56:19.667Z,93.85
2023-02-18T16:58:50.604Z,94.81
2023-02-18T17:01:44.081Z,94.68
2023-02-18T17:04:17.077Z,95.67
2023-02-18T17:06:49.525Z,94.38
2023-02-18T17:09:21.280Z,95.41
2023-02-18T17:11:51.087Z,95.18
2023-02-18T17:14:20.250Z,97.66
2023-02-18T17:16:50.121Z,96.28
2023-02-18T17:19:17.400Z,95.20
2023-02-18T17:21:48.697Z,94.93
2023-02-18T17:24:18.009Z,93.96
2023-02-18T17:26:47.458Z,94.17
2023-02-18T17:29:14.250Z,94.19
2023-02-18T17:31:47.724Z,93.93
2023-02-18T17:34:32.529Z,94.43
2023-02-18T17:37:02.104Z,95.42
2023-02-18T17:39:29.929Z,95.19
2023-02-18T17:41:59.365Z,95.23
2023-02-18T17:44:29.720Z,94.74
2023-02-18T17:46:56.634Z,93.11
2023-02-18T17:49:23.519Z,93.09
2023-02-18T17:51:53.195Z,93.30
2023-02-18T17:54:22.808Z,94.21
2023-02-18T17:56:55.661Z,93.77
2023-02-18T17:59:25.211Z,93.41
2023-02-18T18:01:54.302Z,92.81
2023-02-18T18:04:21.219Z,93.01
2023-02-18T18:06:51.182Z,92.91
2023-02-18T18:09:18.236Z,92.89
2023-02-18T18:11:45.117Z,92.90
2023-02-18T18:14:15.213Z,92.01
2023-02-18T18:16:44.271Z,92.08
2023-02-18T18:19:13.627Z,92.33
2023-02-18T18:21:43.071Z,92.12
2023-02-18T18:24:12.907Z,90.88
2023-02-18T18:26:44.394Z,91.55
2023-02-18T18:29:13.386Z,91.35
2023-02-18T18:31:40.452Z,92.14
2023-02-18T18:34:12.558Z,91.26
2023-02-18T18:36:41.730Z,91.47
2023-02-18T18:39:09.461Z,90.46
2023-02-18T18:41:36.497Z,91.48
2023-02-18T18:44:06.596Z,91.82
2023-02-18T18:46:33.617Z,92.12
2023-02-18T18:49:00.518Z,91.43
2023-02-18T18:51:32.835Z,91.88
2023-02-18T18:53:59.775Z,91.83
2023-02-18T18:56:26.684Z,92.29
2023-02-18T18:58:53.839Z,91.79
2023-02-18T19:01:27.101Z,91.06
2023-02-18T19:03:54.285Z,92.27
2023-02-18T19:06:21.610Z,92.73
2023-02-18T19:08:48.652Z,91.87
2023-02-18T19:11:17.143Z,92.44
2023-02-18T19:13:45.769Z,92.79
2023-02-18T19:16:26.617Z,91.86
2023-02-18T19:18:55.959Z,91.69
2023-02-18T19:21:22.850Z,91.45
2023-02-18T19:23:52.209Z,93.03
2023-02-18T19:26:21.231Z,92.90
2023-02-18T19:28:50.614Z,94.06
2023-02-18T19:31:17.733Z,93.92
2023-02-18T19:33:47.253Z,93.84
2023-02-18T19:36:18.728Z,93.75
2023-02-18T19:38:46.605Z,93.01
2023-02-18T19:41:17.074Z,93.14
2023-02-18T19:43:46.506Z,92.70
2023-02-18T19:46:21.682Z,92.03
2023-02-18T19:48:52.344Z,91.68
2023-02-18T19:51:21.236Z,91.75
2023-02-18T19:53:48.207Z,91.70
2023-02-18T19:56:15.189Z,91.25
2023-02-18T19:58:44.634Z,92.24
2023-02-18T20:01:19.237Z,91.32
2023-02-18T20:03:47.195Z,91.42
2023-02-18T20:06:21.779Z,91.43
2023-02-18T20:08:48.941Z,89.94
2023-02-18T20:11:16.037Z,89.12
2023-02-18T20:13:44.540Z,90.11
2023-02-18T20:16:12.200Z,88.76
2023-02-18T20:18:42.273Z,88.49
2023-02-18T20:21:14.458Z,88.61
2023-02-18T20:23:42.116Z,88.69
2023-02-18T20:26:15.222Z,88.77
2023-02-18T20:28:42.884Z,88.88
2023-02-18T20:31:13.940Z,87.91
2023-02-18T20:33:44.281Z,88.25
2023-02-18T20:36:14.437Z,88.49
2023-02-18T20:38:44.353Z,87.58
2023-02-18T20:41:17.719Z,85.84
2023-02-18T20:43:46.212Z,85.84
2023-02-18T20:46:17.596Z,85.59
2023-02-18T20:48:45.251Z,85.63
2023-02-18T20:51:16.316Z,85.99
2023-02-18T20:53:46.167Z,85.92
2023-02-18T20:56:15.961Z,86.05
2023-02-18T20:58:45.275Z,86.17
2023-02-18T21:01:15.694Z,86.74
2023-02-18T21:03:45.137Z,86.19
2023-02-18T21:06:19.321Z,86.13
2023-02-18T21:08:48.935Z,85.91
2023-02-18T21:11:22.203Z,86.05
2023-02-18T21:13:51.819Z,85.75
2023-02-18T21:16:20.791Z,85.80
2023-02-18T21:18:48.453Z,85.29
2023-02-18T21:21:18.707Z,85.57
2023-02-18T21:23:46.174Z,84.58
2023-02-18T21:26:23.313Z,84.93
2023-02-18T21:28:56.539Z,86.22
2023-02-18T21:31:29.906Z,85.50
2023-02-18T21:33:57.843Z,85.11
2023-02-18T21:36:28.263Z,86.12
2023-02-18T21:39:02.937Z,85.56
2023-02-18T21:41:31.002Z,85.11
2023-02-18T21:44:02.438Z,84.74
2023-02-18T21:46:36.743Z,85.22
2023-02-18T21:49:09.964Z,84.66
2023-02-18T21:51:56.405Z,84.80
2023-02-18T21:54:45.497Z,85.13
2023-02-18T21:57:16.721Z,84.70
2023-02-18T21:59:45.408Z,85.06
2023-02-18T22:02:28.205Z,84.40
2023-02-18T22:04:55.614Z,84.30
2023-02-18T22:07:25.942Z,84.96
2023-02-18T22:09:56.310Z,85.17
2023-02-18T22:12:26.585Z,84.41
2023-02-18T22:14:53.686Z,84.56
2023-02-18T22:17:21.596Z,86.08
2023-02-18T22:19:49.260Z,86.04
2023-02-18T22:22:20.716Z,85.50
2023-02-18T22:24:47.658Z,85.18
2023-02-18T22:27:16.881Z,84.62
2023-02-18T22:29:47.225Z,86.05
2023-02-18T22:32:16.835Z,86.48
2023-02-18T22:34:43.773Z,85.31
2023-02-18T22:37:10.902Z,84.53
2023-02-18T22:39:37.931Z,84.89
2023-02-18T22:42:05.372Z,85.25
2023-02-18T22:44:32.369Z,85.32
2023-02-18T22:46:59.402Z,85.41
2023-02-18T22:49:29.465Z,85.98
2023-02-18T22:51:56.373Z,85.64
2023-02-18T22:54:25.484Z,85.11
2023-02-18T22:56:54.885Z,84.90
2023-02-18T22:59:21.807Z,85.13
2023-02-18T23:01:49.754Z,85.07
2023-02-18T23:04:19.129Z,84.96
2023-02-18T23:06:46.827Z,84.62
2023-02-18T23:09:20.338Z,86.16
2023-02-18T23:11:51.478Z,87.16
2023-02-18T23:14:21.896Z,85.35
2023-02-18T23:17:08.801Z,85.68
2023-02-18T23:19:40.374Z,85.27
2023-02-18T23:22:09.614Z,85.88
2023-02-18T23:24:43.659Z,85.94
2023-02-18T23:27:13.591Z,86.30
2023-02-18T23:29:45.543Z,85.09
2023-02-18T23:32:13.180Z,85.17
2023-02-18T23:34:42.657Z,85.62
2023-02-18T23:37:10.254Z,84.63
2023-02-18T23:39:37.560Z,84.21
2023-02-18T23:42:04.669Z,84.53
2023-02-18T23:44:32.003Z,84.05
2023-02-18T23:47:01.276Z,84.82
2023-02-18T23:49:28.848Z,84.78
2023-02-18T23:51:59.372Z,85.39
2023-02-18T23:54:26.591Z,85.29
2023-02-18T23:56:53.648Z,84.57
2023-02-18T23:59:20.706Z,84.12
